createdAt,value
2018-08-13T00:02:04.308Z,95578.12
2018-08-13T00:04:36.177Z,95576.50
2018-08-13T00:07:06.402Z,95573.54
2018-08-13T00:09:42.239Z,95571.64
2018-08-13T00:12:13.619Z,95571.02
2018-08-13T00:14:44.678Z,95567.94
2018-08-13T00:17:14.572Z,95570.40
2018-08-13T00:19:45.307Z,95570.46
2018-08-13T00:22:15.175Z,95572.00
2018-08-13T00:24:45.126Z,95568.02
2018-08-13T00:27:15.009Z,95565.81
2018-08-13T00:29:45.319Z,95560.95
2018-08-13T00:32:15.246Z,95561.13
2018-08-13T00:34:45.724Z,95568.04
2018-08-13T00:37:16.136Z,95562.63
2018-08-13T00:39:46.823Z,95555.32
2018-08-13T00:42:17.740Z,95551.02
2018-08-13T00:44:48.670Z,95553.23
2018-08-13T00:47:18.548Z,95552.78
2018-08-13T00:49:48.384Z,95546.27
2018-08-13T00:52:18.244Z,95547.38
2018-08-13T00:54:48.190Z,95543.88
2018-08-13T00:57:18.072Z,95538.67
2018-08-13T00:59:48.504Z,95537.42
2018-08-13T01:02:18.402Z,95529.80
2018-08-13T01:04:48.236Z,95534.23
2018-08-13T01:07:18.059Z,95539.45
2018-08-13T01:09:47.988Z,95531.11
2018-08-13T01:12:17.852Z,95527.84
2018-08-13T01:14:49.136Z,95529.33
2018-08-13T01:17:19.008Z,95525.77
2018-08-13T01:19:48.879Z,95525.08
2018-08-13T01:22:18.734Z,95528.84
2018-08-13T01:24:49.856Z,95528.66
2018-08-13T01:27:25.151Z,95526.76
2018-08-13T01:29:58.155Z,95522.16
2018-08-13T01:32:28.291Z,95518.75
2018-08-13T01:35:00.695Z,95525.70
2018-08-13T01:37:32.984Z,95525.44
2018-08-13T01:40:04.720Z,95519.70
2018-08-13T01:42:36.560Z,95523.05
2018-08-13T01:45:07.706Z,95520.37
2018-08-13T01:47:38.329Z,95514.95
2018-08-13T01:50:10.621Z,95520.28
2018-08-13T01:52:43.448Z,95518.03
2018-08-13T01:56:16.332Z,95524.74
2018-08-13T01:58:47.244Z,95515.31
2018-08-13T02:01:19.466Z,95511.77
2018-08-13T02:03:50.865Z,95511.94
2018-08-13T02:06:20.862Z,95515.08
2018-08-13T02:08:50.751Z,95508.20
2018-08-13T02:11:21.680Z,95503.69
2018-08-13T02:13:51.560Z,95504.59
2018-08-13T02:16:21.876Z,95506.44
2018-08-13T02:18:51.820Z,95499.31
2018-08-13T02:21:21.896Z,95497.16
2018-08-13T02:23:51.777Z,95491.55
2018-08-13T02:26:22.164Z,95493.31
2018-08-13T02:28:52.048Z,95487.56
2018-08-13T02:31:21.924Z,95491.52
2018-08-13T02:33:52.665Z,95490.58
2018-08-13T02:36:22.629Z,95487.89
2018-08-13T02:38:52.479Z,95485.09
2018-08-13T02:41:22.924Z,95480.50
2018-08-13T02:43:52.849Z,95489.52
2018-08-13T02:46:22.806Z,95487.29
2018-08-13T02:48:52.632Z,95482.88
2018-08-13T02:51:22.609Z,95475.43
2018-08-13T02:53:54.524Z,95474.02
2018-08-13T02:56:25.862Z,95476.72
2018-08-13T02:58:55.729Z,95470.41
2018-08-13T03:01:25.611Z,95464.86
2018-08-13T03:03:55.569Z,95465.75
2018-08-13T03:06:25.468Z,95463.84
2018-08-13T03:08:55.425Z,95458.94
2018-08-13T03:11:25.745Z,95464.45
2018-08-13T03:13:55.687Z,95464.45
2018-08-13T03:16:26.635Z,95453.88
2018-08-13T03:18:56.585Z,95452.77
2018-08-13T03:21:26.457Z,95451.41
2018-08-13T03:23:56.321Z,95457.83
2018-08-13T03:26:28.539Z,95455.75
2018-08-13T03:28:58.438Z,95454.49
2018-08-13T03:31:28.316Z,95452.66
2018-08-13T03:33:58.693Z,95451.05
2018-08-13T03:36:28.985Z,95451.91
2018-08-13T03:38:59.649Z,95446.77
2018-08-13T03:41:29.455Z,95455.41
2018-08-13T03:44:00.421Z,95442.87
2018-08-13T03:46:30.275Z,95445.56
2018-08-13T03:49:00.571Z,95446.48
2018-08-13T03:51:30.467Z,95445.20
2018-08-13T03:54:00.325Z,95440.91
2018-08-13T03:56:30.187Z,95436.27
2018-08-13T03:59:00.474Z,95434.63
2018-08-13T04:01:30.355Z,95434.63
2018-08-13T04:04:01.880Z,95434.03
2018-08-13T04:06:32.614Z,95436.09
2018-08-13T04:09:02.485Z,95438.53
2018-08-13T04:11:34.965Z,95439.88
2018-08-13T04:14:07.277Z,95443.69
2018-08-13T04:16:37.748Z,95435.84
2018-08-13T04:19:09.442Z,95438.39
2018-08-13T04:21:40.550Z,95443.72
2018-08-13T04:24:11.440Z,95434.95
2018-08-13T04:26:42.672Z,95433.30
2018-08-13T04:29:12.557Z,95439.00
2018-08-13T04:31:42.431Z,95439.43
2018-08-13T04:34:15.450Z,95441.61
2018-08-13T04:36:45.319Z,95446.98
2018-08-13T04:39:16.068Z,95446.83
2018-08-13T04:41:46.420Z,95446.95
2018-08-13T04:44:16.325Z,95447.83
2018-08-13T04:46:46.167Z,95450.62
2018-08-13T04:49:20.204Z,95446.59
2018-08-13T04:51:51.693Z,95445.91
2018-08-13T04:54:21.544Z,95451.81
2018-08-13T04:56:52.275Z,95448.09
2018-08-13T04:59:22.228Z,95452.77
2018-08-13T05:01:52.093Z,95458.67
2018-08-13T05:04:22.377Z,95457.28
2018-08-13T05:06:53.071Z,95460.16
2018-08-13T05:09:24.225Z,95458.25
2018-08-13T05:11:54.028Z,95461.98
2018-08-13T05:14:28.650Z,95463.41
2018-08-13T05:16:58.499Z,95458.31
2018-08-13T05:19:29.935Z,95465.11
2018-08-13T05:22:02.269Z,95456.02
2018-08-13T05:24:34.026Z,95457.11
2018-08-13T05:27:04.576Z,95457.52
2018-08-13T05:29:34.835Z,95445.00
2018-08-13T05:32:05.780Z,95438.33
2018-08-13T05:34:35.751Z,95433.55
2018-08-13T05:37:05.643Z,95436.80
2018-08-13T05:39:35.479Z,95436.89
2018-08-13T05:42:05.455Z,95432.36
2018-08-13T05:44:35.401Z,95437.20
2018-08-13T05:47:05.745Z,95426.72
2018-08-13T05:49:35.831Z,95423.09
2018-08-13T05:52:05.860Z,95426.63
2018-08-13T05:54:36.407Z,95419.88
2018-08-13T05:57:06.326Z,95421.41
2018-08-13T05:59:39.367Z,95427.39
2018-08-13T06:02:10.461Z,95430.48
2018-08-13T06:04:41.305Z,95427.70
2018-08-13T06:07:12.649Z,95429.27
2018-08-13T06:09:44.381Z,95425.97
2018-08-13T06:12:16.652Z,95425.11
2018-08-13T06:14:52.549Z,95424.93
2018-08-13T06:17:22.680Z,95426.30
2018-08-13T06:19:59.739Z,95423.55
2018-08-13T06:22:30.412Z,95424.67
2018-08-13T06:25:01.202Z,95425.61
2018-08-13T06:30:18.939Z,95426.23
2018-08-13T06:32:51.248Z,95422.08
2018-08-13T06:35:22.341Z,95426.22
2018-08-13T06:37:53.124Z,95426.76
2018-08-13T06:40:24.492Z,95414.23
2018-08-13T06:42:54.983Z,95410.66
2018-08-13T06:45:26.568Z,95409.83
2018-08-13T06:48:00.686Z,95402.71
2018-08-13T06:50:30.563Z,95402.95
2018-08-13T06:53:03.547Z,95402.06
2018-08-13T06:55:35.695Z,95409.55
2018-08-13T06:58:06.298Z,95404.25
2018-08-13T07:00:39.877Z,95400.24
2018-08-13T07:03:11.821Z,95406.86
2018-08-13T07:05:43.589Z,95403.63
2018-08-13T07:08:16.264Z,95399.28
2018-08-13T07:10:47.324Z,95404.73
2018-08-13T07:13:18.447Z,95400.75
2018-08-13T07:15:49.635Z,95396.23
2018-08-13T07:18:22.475Z,95395.84
2018-08-13T07:20:54.975Z,95398.27
2018-08-13T07:23:26.405Z,95399.80
2018-08-13T07:25:57.450Z,95399.09
2018-08-13T07:28:30.368Z,95388.02
2018-08-13T07:31:00.329Z,95394.80
2018-08-13T07:33:33.974Z,95392.29
2018-08-13T07:36:06.117Z,95391.84
2018-08-13T07:38:37.116Z,95389.92
2018-08-13T07:41:11.193Z,95387.97
2018-08-13T07:43:41.087Z,95386.25
2018-08-13T07:46:11.109Z,95383.98
2018-08-13T07:48:42.032Z,95377.79
2018-08-13T07:51:13.581Z,95385.23
2018-08-13T07:53:46.658Z,95388.37
2018-08-13T07:56:19.072Z,95382.70
2018-08-13T07:58:51.299Z,95386.84
2018-08-13T08:01:22.362Z,95389.67
2018-08-13T08:03:54.682Z,95379.67
2018-08-13T08:06:29.130Z,95388.70
2018-08-13T08:09:01.641Z,95389.44
2018-08-13T08:11:31.530Z,95383.52
2018-08-13T08:14:01.787Z,95384.48
2018-08-13T08:16:31.645Z,95385.01
2018-08-13T08:19:01.642Z,95386.02
2018-08-13T08:21:32.657Z,95384.23
2018-08-13T08:24:03.783Z,95382.89
2018-08-13T08:26:33.620Z,95386.43
2018-08-13T08:29:05.618Z,95378.55
2018-08-13T08:31:43.511Z,95376.17
2018-08-13T08:34:15.649Z,95380.47
2018-08-13T08:36:50.538Z,95375.98
2018-08-13T08:39:22.993Z,95369.27
2018-08-13T08:41:53.897Z,95377.14
2018-08-13T08:44:25.667Z,95360.70
2018-08-13T08:46:56.027Z,95364.27
2018-08-13T08:49:26.391Z,95366.59
2018-08-13T08:51:58.106Z,95365.27
2018-08-13T08:54:29.413Z,95367.03
2018-08-13T08:57:00.508Z,95362.50
2018-08-13T08:59:31.599Z,95355.25
2018-08-13T09:02:04.004Z,95359.34
2018-08-13T09:04:35.446Z,95346.19
2018-08-13T09:07:05.992Z,95349.93
2018-08-13T09:09:36.190Z,95345.09
2018-08-13T09:12:06.697Z,95345.48
2018-08-13T09:14:38.769Z,95346.27
2018-08-13T09:17:11.297Z,95348.23
2018-08-13T09:19:51.730Z,95339.02
2018-08-13T09:22:32.927Z,95345.51
2018-08-13T09:25:14.574Z,95342.34
2018-08-13T09:27:58.182Z,95338.22
2018-08-13T09:32:45.739Z,95338.41
2018-08-13T09:38:03.898Z,95317.99
2018-08-13T09:40:34.341Z,95338.19
2018-08-13T09:43:04.804Z,95335.86
2018-08-13T09:45:59.095Z,95330.73
2018-08-13T09:48:36.035Z,95337.21
2018-08-13T09:51:10.013Z,95335.28
2018-08-13T09:53:39.930Z,95341.58
2018-08-13T09:56:11.291Z,95330.55
2018-08-13T09:58:43.312Z,95325.41
2018-08-13T10:01:14.432Z,95334.41
2018-08-13T10:03:45.287Z,95326.14
2018-08-13T10:06:15.081Z,95352.91
2018-08-13T10:08:46.893Z,95346.80
2018-08-13T10:11:19.282Z,95342.13
2018-08-13T10:13:49.916Z,95341.93
2018-08-13T10:16:21.265Z,95333.70
2018-08-13T10:18:51.448Z,95339.65
2018-08-13T10:21:26.046Z,95344.33
2018-08-13T10:23:57.610Z,95340.59
2018-08-13T10:26:27.514Z,95345.31
2018-08-13T10:28:58.953Z,95353.95
2018-08-13T10:31:28.903Z,95349.85
2018-08-13T10:34:00.160Z,95349.72
2018-08-13T10:36:30.021Z,95348.58
2018-08-13T10:39:01.334Z,95347.76
2018-08-13T10:41:33.264Z,95351.82
2018-08-13T10:44:04.320Z,95350.89
2018-08-13T10:46:35.668Z,95348.98
2018-08-13T10:49:06.410Z,95353.16
2018-08-13T10:51:39.249Z,95343.80
2018-08-13T10:54:10.874Z,95338.94
2018-08-13T10:56:42.184Z,95337.34
2018-08-13T10:59:14.546Z,95344.01
2018-08-13T11:01:45.834Z,95340.31
2018-08-13T11:04:17.301Z,95349.42
2018-08-13T11:06:47.176Z,95346.66
2018-08-13T11:09:22.957Z,95343.92
2018-08-13T11:11:54.285Z,95334.17
2018-08-13T11:14:24.786Z,95334.52
2018-08-13T11:24:05.937Z,95329.53
2018-08-13T11:26:36.420Z,95324.66
2018-08-13T11:29:06.338Z,95319.59
2018-08-13T11:31:37.747Z,95322.31
2018-08-13T11:34:08.527Z,95319.74
2018-08-13T11:36:39.363Z,95294.16
2018-08-13T11:39:12.464Z,95308.59
2018-08-13T11:41:42.983Z,95313.77
2018-08-13T11:44:13.107Z,95320.72
2018-08-13T11:46:43.147Z,95325.07
2018-08-13T11:49:14.289Z,95329.80
2018-08-13T11:51:44.128Z,95338.33
2018-08-13T11:54:15.238Z,95330.00
2018-08-13T11:56:49.501Z,95334.92
2018-08-13T11:59:19.372Z,95338.91
2018-08-13T12:01:52.307Z,95325.38
2018-08-13T12:04:22.178Z,95334.71
2018-08-13T12:06:52.720Z,95336.08
2018-08-13T12:09:24.643Z,95334.06
2018-08-13T12:11:55.332Z,95338.78
2018-08-13T12:14:25.189Z,95335.19
2018-08-13T12:16:56.464Z,95339.39
2018-08-13T12:19:26.361Z,95340.29
2018-08-13T12:21:57.388Z,95336.37
2018-08-13T12:24:34.817Z,95330.59
2018-08-13T12:27:06.604Z,95324.28
2018-08-13T12:29:36.985Z,95331.97
2018-08-13T12:32:09.411Z,95331.05
2018-08-13T12:34:39.717Z,95334.11
2018-08-13T12:37:11.195Z,95336.14
2018-08-13T12:39:41.406Z,95336.34
2018-08-13T12:42:11.970Z,95354.42
2018-08-13T12:44:42.971Z,95347.75
2018-08-13T12:47:18.846Z,95352.41
2018-08-13T12:49:49.409Z,95353.78
2018-08-13T12:52:20.287Z,95354.38
2018-08-13T12:54:51.280Z,95348.73
2018-08-13T12:57:21.857Z,95352.28
2018-08-13T12:59:53.997Z,95350.67
2018-08-13T13:02:31.586Z,95347.48
2018-08-13T13:05:03.216Z,95352.08
2018-08-13T13:07:36.730Z,95349.69
2018-08-13T13:10:12.719Z,95354.17
2018-08-13T13:12:46.180Z,95359.39
2018-08-13T13:15:21.875Z,95359.00
2018-08-13T13:17:54.389Z,95368.75
2018-08-13T13:20:24.772Z,95386.50
2018-08-13T13:22:56.167Z,95363.55
2018-08-13T13:25:28.648Z,95380.30
2018-08-13T13:28:01.298Z,95388.37
2018-08-13T13:30:32.332Z,95401.11
2018-08-13T13:33:08.598Z,95405.97
2018-08-13T13:35:40.236Z,95409.42
2018-08-13T13:38:11.517Z,95416.80
2018-08-13T13:40:45.163Z,95411.92
2018-08-13T13:43:17.070Z,95411.69
2018-08-13T13:45:47.434Z,95408.73
2018-08-13T13:48:18.181Z,95418.11
2018-08-13T13:50:48.065Z,95416.12
2018-08-13T13:53:18.866Z,95419.20
2018-08-13T13:55:49.041Z,95414.05
2018-08-13T13:58:23.336Z,95412.84
2018-08-13T14:00:53.960Z,95413.59
2018-08-13T14:03:29.495Z,95405.94
2018-08-13T14:06:00.318Z,95412.19
2018-08-13T14:08:30.543Z,95409.90
2018-08-13T14:11:05.628Z,95407.93
2018-08-13T14:13:38.660Z,95417.68
2018-08-13T14:16:09.465Z,95419.91
2018-08-13T14:18:40.875Z,95410.33
2018-08-13T14:21:12.607Z,95409.75
2018-08-13T14:23:43.458Z,95411.67
2018-08-13T14:26:14.517Z,95410.64
2018-08-13T14:28:45.728Z,95413.50
2018-08-13T14:31:16.065Z,95406.99
2018-08-13T14:33:48.629Z,95397.63
2018-08-13T14:36:19.376Z,95388.81
2018-08-13T14:38:50.372Z,95386.13
2018-08-13T14:41:21.070Z,95391.23
2018-08-13T14:43:54.795Z,95394.40
2018-08-13T14:46:24.643Z,95391.17
2018-08-13T14:48:58.730Z,95398.08
2018-08-13T14:51:37.157Z,95378.83
2018-08-13T14:54:08.256Z,95381.92
2018-08-13T14:56:44.425Z,95389.19
2018-08-13T14:59:14.317Z,95386.03
2018-08-13T15:01:50.490Z,95381.00
2018-08-13T15:04:20.603Z,95373.89
2018-08-13T15:06:52.473Z,95364.14
2018-08-13T15:09:24.808Z,95366.37
2018-08-13T15:11:57.632Z,95361.20
2018-08-13T15:14:32.521Z,95365.91
2018-08-13T15:17:02.366Z,95360.05
2018-08-13T15:19:33.600Z,95347.16
2018-08-13T15:22:05.180Z,95347.12
2018-08-13T15:24:35.956Z,95349.94
2018-08-13T15:27:08.034Z,95355.27
2018-08-13T15:29:39.971Z,95360.55
2018-08-13T15:32:11.683Z,95361.02
2018-08-13T15:34:45.948Z,95364.80
2018-08-13T15:37:16.771Z,95364.48
2018-08-13T15:39:47.984Z,95349.22
2018-08-13T15:42:17.818Z,95340.73
2018-08-13T15:44:52.356Z,95339.91
2018-08-13T15:47:23.379Z,95341.27
2018-08-13T15:49:54.313Z,95337.64
2018-08-13T15:52:24.884Z,95334.48
2018-08-13T15:54:55.308Z,95333.28
2018-08-13T15:57:27.636Z,95335.63
2018-08-13T15:59:59.387Z,95333.11
2018-08-13T16:02:29.218Z,95340.05
2018-08-13T16:05:00.270Z,95339.69
2018-08-13T16:07:33.234Z,95335.95
2018-08-13T16:10:04.405Z,95339.47
2018-08-13T16:12:34.230Z,95340.41
2018-08-13T16:15:06.720Z,95343.25
2018-08-13T16:17:39.411Z,95345.19
2018-08-13T16:20:15.558Z,95348.52
2018-08-13T16:22:46.325Z,95346.45
2018-08-13T16:25:16.650Z,95344.95
2018-08-13T16:27:47.326Z,95348.97
2018-08-13T16:30:21.248Z,95344.83
2018-08-13T16:32:57.603Z,95344.08
2018-08-13T16:35:30.613Z,95351.42
2018-08-13T16:38:03.397Z,95347.44
2018-08-13T16:40:33.282Z,95334.36
2018-08-13T16:43:03.790Z,95340.99
2018-08-13T16:45:34.232Z,95343.48
2018-08-13T16:48:04.465Z,95340.89
2018-08-13T16:50:35.988Z,95340.89
2018-08-13T16:53:05.957Z,95352.08
2018-08-13T16:55:35.939Z,95354.91
2018-08-13T16:58:06.719Z,95356.92
2018-08-13T17:00:37.287Z,95366.05
2018-08-13T17:03:07.969Z,95372.56
2018-08-13T17:05:38.536Z,95376.83
2018-08-13T17:08:08.383Z,95385.72
2018-08-13T17:10:38.885Z,95385.58
2018-08-13T17:13:09.684Z,95389.28
2018-08-13T17:15:40.089Z,95397.64
2018-08-13T17:18:09.980Z,95408.03
2018-08-13T17:20:44.399Z,95403.80
2018-08-13T17:23:14.235Z,95405.91
2018-08-13T17:25:52.214Z,95391.88
2018-08-13T17:28:22.811Z,95385.84
2018-08-13T17:30:53.288Z,95402.64
2018-08-13T17:33:28.036Z,95413.73
2018-08-13T17:36:00.989Z,95419.67
2018-08-13T17:38:31.407Z,95410.98
2018-08-13T17:41:03.233Z,95414.72
2018-08-13T17:43:33.479Z,95418.56
2018-08-13T17:46:04.240Z,95412.67
2018-08-13T17:48:34.245Z,95419.60
2018-08-13T17:51:05.827Z,95428.42
2018-08-13T17:53:37.097Z,95430.22
2018-08-13T17:56:08.399Z,95435.20
2018-08-13T17:58:38.699Z,95432.95
2018-08-13T18:01:09.464Z,95429.74
2018-08-13T18:03:39.464Z,95428.48
2018-08-13T18:06:23.904Z,95430.18
2018-08-13T18:08:54.093Z,95423.75
2018-08-13T18:11:24.281Z,95421.14
2018-08-13T18:13:56.443Z,95404.95
2018-08-13T18:16:27.407Z,95408.12
2018-08-13T18:19:03.088Z,95407.20
2018-08-13T18:21:35.327Z,95398.16
2018-08-13T18:24:07.361Z,95398.27
2018-08-13T18:26:40.193Z,95393.52
2018-08-13T18:29:16.395Z,95398.19
2018-08-13T18:31:51.957Z,95401.80
2018-08-13T18:34:21.816Z,95400.08
2018-08-13T18:36:52.804Z,95399.98
2018-08-13T18:39:25.924Z,95402.00
2018-08-13T18:41:55.861Z,95398.59
2018-08-13T18:44:27.638Z,95400.42
2018-08-13T18:46:59.698Z,95398.27
2018-08-13T18:49:30.592Z,95404.03
2018-08-13T18:52:07.693Z,95403.40
2018-08-13T18:54:47.927Z,95393.89
2018-08-13T18:57:22.325Z,95399.89
2018-08-13T18:59:56.446Z,95397.27
2018-08-13T19:02:28.419Z,95398.39
2018-08-13T19:04:58.345Z,95407.69
2018-08-13T19:07:42.311Z,95410.70
2018-08-13T19:10:13.641Z,95407.31
2018-08-13T19:12:44.407Z,95418.17
2018-08-13T19:15:17.343Z,95421.54
2018-08-13T19:17:53.208Z,95421.54
2018-08-13T19:20:23.539Z,95419.16
2018-08-13T19:22:53.456Z,95424.25
2018-08-13T19:25:24.986Z,95420.32
2018-08-13T19:28:27.673Z,95420.09
2018-08-13T19:31:00.384Z,95427.99
2018-08-13T19:33:33.779Z,95429.44
2018-08-13T19:36:09.763Z,95423.78
2018-08-13T19:38:42.496Z,95422.53
2018-08-13T19:43:59.229Z,95417.00
2018-08-13T19:46:29.575Z,95419.61
2018-08-13T19:49:03.958Z,95421.97
2018-08-13T19:51:35.999Z,95424.34
2018-08-13T19:54:09.312Z,95421.88
2018-08-13T19:56:48.656Z,95420.75
2018-08-13T19:59:20.345Z,95430.57
2018-08-13T20:01:52.750Z,95432.81
2018-08-13T20:04:22.748Z,95436.89
2018-08-13T20:06:59.737Z,95423.79
2018-08-13T20:09:33.580Z,95436.69
2018-08-13T20:12:07.304Z,95433.97
2018-08-13T20:14:42.256Z,95429.11
2018-08-13T20:17:14.466Z,95426.95
2018-08-13T20:19:46.467Z,95435.28
2018-08-13T20:22:20.790Z,95426.91
2018-08-13T20:24:52.118Z,95437.44
2018-08-13T20:27:43.328Z,95426.72
2018-08-13T20:30:17.273Z,95424.11
2018-08-13T20:32:53.645Z,95425.70
2018-08-13T20:35:26.553Z,95418.46
2018-08-13T20:37:58.082Z,95423.79
2018-08-13T20:40:48.186Z,95410.55
2018-08-13T20:43:19.294Z,95413.73
2018-08-13T20:45:51.194Z,95417.89
2018-08-13T20:48:22.208Z,95413.50
2018-08-13T20:50:52.575Z,95417.80
2018-08-13T20:53:22.734Z,95420.28
2018-08-13T20:55:53.920Z,95420.05
2018-08-13T20:58:26.778Z,95418.25
2018-08-13T21:01:00.763Z,95425.37
2018-08-13T21:03:34.440Z,95418.45
2018-08-13T21:06:06.553Z,95417.69
2018-08-13T21:08:38.356Z,95419.16
2018-08-13T21:11:09.285Z,95411.95
2018-08-13T21:13:39.920Z,95415.78
2018-08-13T21:16:10.657Z,95417.47
2018-08-13T21:18:40.525Z,95415.09
2018-08-13T21:21:15.684Z,95413.63
2018-08-13T21:23:48.431Z,95420.20
2018-08-13T21:26:18.264Z,95422.16
2018-08-13T21:28:52.555Z,95430.86
2018-08-13T21:31:24.300Z,95433.61
2018-08-13T21:34:00.273Z,95439.14
2018-08-13T21:36:31.000Z,95444.48
2018-08-13T21:39:01.397Z,95440.57
2018-08-13T21:41:33.769Z,95447.23
2018-08-13T21:44:04.258Z,95442.83
2018-08-13T21:46:34.804Z,95444.81
2018-08-13T21:49:05.488Z,95441.86
2018-08-13T21:51:36.527Z,95443.08
2018-08-13T21:54:06.436Z,95442.27
2018-08-13T21:56:37.936Z,95457.94
2018-08-13T21:59:08.545Z,95458.03
2018-08-13T22:01:45.378Z,95461.75
2018-08-13T22:04:17.355Z,95460.26
2018-08-13T22:07:03.360Z,95463.28
2018-08-13T22:09:36.272Z,95458.95
2018-08-13T22:12:10.456Z,95459.35
2018-08-13T22:14:46.029Z,95459.44
2018-08-13T22:17:16.505Z,95467.67
2018-08-13T22:19:46.781Z,95470.94
2018-08-13T22:22:16.605Z,95473.21
2018-08-13T22:25:04.705Z,95468.44
2018-08-13T22:27:34.663Z,95466.55
2018-08-13T22:30:08.594Z,95475.48
2018-08-13T22:32:39.171Z,95471.86
2018-08-13T22:35:09.882Z,95468.11
2018-08-13T22:37:41.858Z,95475.80
2018-08-13T22:40:16.779Z,95468.23
2018-08-13T22:42:47.828Z,95472.06
2018-08-13T22:45:20.396Z,95480.08
2018-08-13T22:47:50.716Z,95477.60
2018-08-13T22:50:20.606Z,95479.61
2018-08-13T22:52:50.580Z,95474.51
2018-08-13T22:55:21.206Z,95477.69
2018-08-13T22:57:51.127Z,95474.03
2018-08-13T23:00:21.720Z,95477.22
2018-08-13T23:03:07.991Z,95474.27
2018-08-13T23:05:38.319Z,95474.27
2018-08-13T23:08:11.554Z,95472.80
2018-08-13T23:10:42.280Z,95469.30
2018-08-13T23:13:22.201Z,95463.22
2018-08-13T23:15:52.847Z,95479.25
2018-08-13T23:18:23.108Z,95474.50
2018-08-13T23:20:52.909Z,95474.83
2018-08-13T23:23:22.751Z,95472.44
2018-08-13T23:25:54.211Z,95470.61
2018-08-13T23:28:24.045Z,95462.02
2018-08-13T23:30:54.371Z,95461.01
2018-08-13T23:33:24.621Z,95465.08
2018-08-13T23:35:59.901Z,95458.95
2018-08-13T23:38:29.800Z,95460.78
2018-08-13T23:41:00.312Z,95458.39
2018-08-13T23:43:30.139Z,95452.88
2018-08-13T23:45:59.964Z,95453.99
2018-08-13T23:48:29.796Z,95455.58
2018-08-13T23:51:00.176Z,95463.91
2018-08-13T23:53:30.967Z,95454.28
2018-08-13T23:56:00.756Z,95459.55
2018-08-13T23:58:30.585Z,95465.31
